sensor_id;sensor_type;location;lat;lon;timestamp;pressure;altitude;pressure_sealevel;temperature;humidity
3960;BME280;1994;48.640;8.894;2023-06-14T00:01:50;95677.50;;;15.71;47.53
3960;BME280;1994;48.640;8.894;2023-06-14T00:04:16;95674.94;;;15.66;48.11
3960;BME280;1994;48.640;8.894;2023-06-14T00:06:43;95673.38;;;15.65;47.82
3960;BME280;1994;48.640;8.894;2023-06-14T00:09:11;95673.38;;;15.65;47.93
3960;BME280;1994;48.640;8.894;2023-06-14T00:11:41;95673.38;;;15.65;48.29
3960;BME280;1994;48.640;8.894;2023-06-14T00:14:07;95679.13;;;15.62;47.70
3960;BME280;1994;48.640;8.894;2023-06-14T00:16:33;95672.72;;;15.78;47.89
3960;BME280;1994;48.640;8.894;2023-06-14T00:19:01;95678.38;;;15.85;47.77
3960;BME280;1994;48.640;8.894;2023-06-14T00:21:30;95679.50;;;16.02;47.49
3960;BME280;1994;48.640;8.894;2023-06-14T00:24:00;95677.75;;;15.98;47.20
3960;BME280;1994;48.640;8.894;2023-06-14T00:26:26;95678.47;;;15.80;47.61
3960;BME280;1994;48.640;8.894;2023-06-14T00:28:53;95678.03;;;15.68;48.33
3960;BME280;1994;48.640;8.894;2023-06-14T00:31:19;95686.88;;;15.43;49.48
3960;BME280;1994;48.640;8.894;2023-06-14T00:33:45;95686.25;;;15.18;50.82
3960;BME280;1994;48.640;8.894;2023-06-14T00:36:11;95683.81;;;14.93;50.89
3960;BME280;1994;48.640;8.894;2023-06-14T00:38:37;95672.88;;;14.91;51.09
3960;BME280;1994;48.640;8.894;2023-06-14T00:41:02;95671.75;;;15.02;51.15
3960;BME280;1994;48.640;8.894;2023-06-14T00:43:29;95675.91;;;15.03;50.98
3960;BME280;1994;48.640;8.894;2023-06-14T00:45:55;95671.25;;;15.00;51.13
3960;BME280;1994;48.640;8.894;2023-06-14T00:48:20;95670.78;;;14.93;51.17
3960;BME280;1994;48.640;8.894;2023-06-14T00:50:49;95677.72;;;15.07;51.00
3960;BME280;1994;48.640;8.894;2023-06-14T00:53:17;95674.59;;;15.05;51.04
3960;BME280;1994;48.640;8.894;2023-06-14T00:55:51;95677.16;;;14.77;52.10
3960;BME280;1994;48.640;8.894;2023-06-14T00:58:17;95667.91;;;14.51;52.61
3960;BME280;1994;48.640;8.894;2023-06-14T01:00:43;95671.03;;;14.43;52.97
3960;BME280;1994;48.640;8.894;2023-06-14T01:03:10;95676.78;;;14.45;53.19
3960;BME280;1994;48.640;8.894;2023-06-14T01:05:38;95677.19;;;14.67;52.34
3960;BME280;1994;48.640;8.894;2023-06-14T01:08:24;95671.50;;;14.60;52.20
3960;BME280;1994;48.640;8.894;2023-06-14T01:11:07;95677.72;;;14.64;51.81
3960;BME280;1994;48.640;8.894;2023-06-14T01:13:39;95669.00;;;14.35;52.12
3960;BME280;1994;48.640;8.894;2023-06-14T01:16:08;95667.41;;;14.44;52.32
3960;BME280;1994;48.640;8.894;2023-06-14T01:18:35;95662.72;;;14.41;52.80
3960;BME280;1994;48.640;8.894;2023-06-14T01:21:01;95666.91;;;14.37;52.66
3960;BME280;1994;48.640;8.894;2023-06-14T01:23:32;95667.50;;;14.24;53.16
3960;BME280;1994;48.640;8.894;2023-06-14T01:25:59;95672.19;;;14.17;53.38
3960;BME280;1994;48.640;8.894;2023-06-14T01:28:27;95678.47;;;14.01;53.57
3960;BME280;1994;48.640;8.894;2023-06-14T01:31:00;95681.84;;;14.06;53.72
3960;BME280;1994;48.640;8.894;2023-06-14T01:33:30;95683.16;;;13.94;53.77
3960;BME280;1994;48.640;8.894;2023-06-14T01:35:57;95676.34;;;14.13;53.04
3960;BME280;1994;48.640;8.894;2023-06-14T01:38:26;95674.84;;;14.02;53.34
3960;BME280;1994;48.640;8.894;2023-06-14T01:40:55;95676.94;;;14.00;53.04
3960;BME280;1994;48.640;8.894;2023-06-14T01:43:23;95675.66;;;13.92;53.54
3960;BME280;1994;48.640;8.894;2023-06-14T01:45:51;95669.59;;;14.17;53.00
3960;BME280;1994;48.640;8.894;2023-06-14T01:48:17;95672.44;;;14.30;52.42
3960;BME280;1994;48.640;8.894;2023-06-14T01:50:43;95674.47;;;14.38;52.01
3960;BME280;1994;48.640;8.894;2023-06-14T01:53:10;95675.78;;;14.36;52.24
3960;BME280;1994;48.640;8.894;2023-06-14T01:55:36;95680.50;;;14.29;52.58
3960;BME280;1994;48.640;8.894;2023-06-14T01:58:11;95670.56;;;14.36;52.08
3960;BME280;1994;48.640;8.894;2023-06-14T02:00:37;95666.41;;;14.30;52.33
3960;BME280;1994;48.640;8.894;2023-06-14T02:03:03;95671.97;;;14.03;52.99
3960;BME280;1994;48.640;8.894;2023-06-14T02:05:31;95680.09;;;13.82;53.72
3960;BME280;1994;48.640;8.894;2023-06-14T02:07:57;95676.75;;;13.56;54.79
3960;BME280;1994;48.640;8.894;2023-06-14T02:10:23;95678.03;;;13.54;55.06
3960;BME280;1994;48.640;8.894;2023-06-14T02:12:49;95688.44;;;13.44;55.28
3960;BME280;1994;48.640;8.894;2023-06-14T02:15:15;95677.53;;;13.37;55.74
3960;BME280;1994;48.640;8.894;2023-06-14T02:17:48;95690.03;;;13.35;55.74
3960;BME280;1994;48.640;8.894;2023-06-14T02:20:15;95684.28;;;13.18;56.21
3960;BME280;1994;48.640;8.894;2023-06-14T02:22:41;95684.28;;;13.28;56.09
3960;BME280;1994;48.640;8.894;2023-06-14T02:25:08;95684.81;;;13.25;55.98
3960;BME280;1994;48.640;8.894;2023-06-14T02:27:34;95686.13;;;13.12;56.51
3960;BME280;1994;48.640;8.894;2023-06-14T02:30:00;95683.00;;;13.00;56.70
3960;BME280;1994;48.640;8.894;2023-06-14T02:32:26;95684.28;;;12.98;56.55
3960;BME280;1994;48.640;8.894;2023-06-14T02:34:53;95680.13;;;13.12;56.39
3960;BME280;1994;48.640;8.894;2023-06-14T02:37:20;95679.88;;;13.08;56.55
3960;BME280;1994;48.640;8.894;2023-06-14T02:39:46;95678.56;;;13.01;56.77
3960;BME280;1994;48.640;8.894;2023-06-14T02:42:12;95684.81;;;13.05;56.72
3960;BME280;1994;48.640;8.894;2023-06-14T02:44:37;95678.81;;;13.14;56.48
3960;BME280;1994;48.640;8.894;2023-06-14T02:47:04;95674.91;;;13.12;56.62
3960;BME280;1994;48.640;8.894;2023-06-14T02:49:30;95680.34;;;12.95;57.05
3960;BME280;1994;48.640;8.894;2023-06-14T02:51:56;95675.69;;;12.97;57.11
3960;BME280;1994;48.640;8.894;2023-06-14T02:54:22;95673.56;;;12.74;57.75
3960;BME280;1994;48.640;8.894;2023-06-14T02:56:48;95670.41;;;12.62;58.09
3960;BME280;1994;48.640;8.894;2023-06-14T02:59:13;95668.91;;;12.91;57.31
3960;BME280;1994;48.640;8.894;2023-06-14T03:01:40;95680.66;;;13.04;57.29
3960;BME280;1994;48.640;8.894;2023-06-14T03:04:07;95671.28;;;12.98;56.97
3960;BME280;1994;48.640;8.894;2023-06-14T03:06:33;95668.13;;;12.81;57.72
3960;BME280;1994;48.640;8.894;2023-06-14T03:09:00;95674.09;;;12.81;57.52
3960;BME280;1994;48.640;8.894;2023-06-14T03:11:30;95676.25;;;12.99;56.75
3960;BME280;1994;48.640;8.894;2023-06-14T03:13:56;95669.22;;;13.05;56.63
3960;BME280;1994;48.640;8.894;2023-06-14T03:16:22;95673.88;;;12.98;56.85
3960;BME280;1994;48.640;8.894;2023-06-14T03:18:51;95676.44;;;12.93;57.17
3960;BME280;1994;48.640;8.894;2023-06-14T03:21:18;95682.94;;;12.90;57.34
3960;BME280;1994;48.640;8.894;2023-06-14T03:23:46;95685.78;;;12.89;57.24
3960;BME280;1994;48.640;8.894;2023-06-14T03:26:13;95689.94;;;12.90;56.91
3960;BME280;1994;48.640;8.894;2023-06-14T03:28:41;95693.59;;;12.94;57.15
3960;BME280;1994;48.640;8.894;2023-06-14T03:31:07;95690.22;;;12.88;57.22
3960;BME280;1994;48.640;8.894;2023-06-14T03:33:34;95694.13;;;12.91;57.47
3960;BME280;1994;48.640;8.894;2023-06-14T03:36:02;95699.84;;;12.88;57.54
3960;BME280;1994;48.640;8.894;2023-06-14T03:38:28;95695.09;;;12.65;58.19
3960;BME280;1994;48.640;8.894;2023-06-14T03:40:54;95695.06;;;12.50;58.96
3960;BME280;1994;48.640;8.894;2023-06-14T03:43:19;95697.16;;;12.53;59.05
3960;BME280;1994;48.640;8.894;2023-06-14T03:45:45;95701.84;;;12.56;59.13
3960;BME280;1994;48.640;8.894;2023-06-14T03:48:11;95703.34;;;12.47;59.23
3960;BME280;1994;48.640;8.894;2023-06-14T03:50:37;95698.16;;;12.47;59.36
3960;BME280;1994;48.640;8.894;2023-06-14T03:53:04;95703.59;;;12.40;59.65
3960;BME280;1994;48.640;8.894;2023-06-14T03:55:30;95709.03;;;12.34;59.87
3960;BME280;1994;48.640;8.894;2023-06-14T03:57:59;95707.47;;;12.33;60.09
3960;BME280;1994;48.640;8.894;2023-06-14T04:00:25;95715.78;;;12.35;59.99
3960;BME280;1994;48.640;8.894;2023-06-14T04:02:51;95715.28;;;12.38;60.29
3960;BME280;1994;48.640;8.894;2023-06-14T04:05:17;95717.91;;;12.43;60.05
3960;BME280;1994;48.640;8.894;2023-06-14T04:07:45;95727.81;;;12.56;60.04
3960;BME280;1994;48.640;8.894;2023-06-14T04:10:12;95720.06;;;12.71;59.64
3960;BME280;1994;48.640;8.894;2023-06-14T04:12:39;95725.50;;;12.69;59.51
3960;BME280;1994;48.640;8.894;2023-06-14T04:15:06;95729.47;;;12.87;58.69
3960;BME280;1994;48.640;8.894;2023-06-14T04:17:32;95725.84;;;12.93;58.22
3960;BME280;1994;48.640;8.894;2023-06-14T04:19:59;95725.81;;;12.88;58.24
3960;BME280;1994;48.640;8.894;2023-06-14T04:22:26;95733.69;;;13.03;58.33
3960;BME280;1994;48.640;8.894;2023-06-14T04:24:54;95739.13;;;12.96;58.28
3960;BME280;1994;48.640;8.894;2023-06-14T04:27:23;95741.50;;;13.08;58.12
3960;BME280;1994;48.640;8.894;2023-06-14T04:29:52;95738.34;;;12.96;58.33
3960;BME280;1994;48.640;8.894;2023-06-14T04:32:26;95744.03;;;12.93;58.58
3960;BME280;1994;48.640;8.894;2023-06-14T04:35:01;95741.44;;;12.93;59.00
3960;BME280;1994;48.640;8.894;2023-06-14T04:37:29;95738.91;;;13.13;58.78
3960;BME280;1994;48.640;8.894;2023-06-14T04:39:56;95744.66;;;13.30;58.43
3960;BME280;1994;48.640;8.894;2023-06-14T04:42:23;95741.53;;;13.38;58.14
3960;BME280;1994;48.640;8.894;2023-06-14T04:44:51;95747.78;;;13.57;57.76
3960;BME280;1994;48.640;8.894;2023-06-14T04:47:21;95750.38;;;13.77;57.21
3960;BME280;1994;48.640;8.894;2023-06-14T04:49:47;95751.66;;;13.84;56.98
3960;BME280;1994;48.640;8.894;2023-06-14T04:52:13;95752.47;;;13.85;57.15
3960;BME280;1994;48.640;8.894;2023-06-14T04:54:40;95754.50;;;13.98;57.11
3960;BME280;1994;48.640;8.894;2023-06-14T04:57:09;95749.28;;;14.13;56.42
3960;BME280;1994;48.640;8.894;2023-06-14T04:59:41;95754.75;;;14.16;56.75
3960;BME280;1994;48.640;8.894;2023-06-14T05:02:06;95764.94;;;14.23;56.08
3960;BME280;1994;48.640;8.894;2023-06-14T05:04:34;95764.91;;;14.28;56.37
3960;BME280;1994;48.640;8.894;2023-06-14T05:07:00;95767.50;;;14.33;57.04
3960;BME280;1994;48.640;8.894;2023-06-14T05:09:27;95770.03;;;14.53;56.72
3960;BME280;1994;48.640;8.894;2023-06-14T05:11:53;95760.06;;;14.70;56.23
3960;BME280;1994;48.640;8.894;2023-06-14T05:14:19;95768.09;;;14.78;55.83
3960;BME280;1994;48.640;8.894;2023-06-14T05:16:45;95762.06;;;14.93;55.44
3960;BME280;1994;48.640;8.894;2023-06-14T05:19:11;95761.00;;;14.94;56.35
3960;BME280;1994;48.640;8.894;2023-06-14T05:21:37;95768.25;;;15.02;55.50
3960;BME280;1994;48.640;8.894;2023-06-14T05:24:04;95768.22;;;15.12;55.08
3960;BME280;1994;48.640;8.894;2023-06-14T05:26:30;95762.38;;;15.25;55.00
3960;BME280;1994;48.640;8.894;2023-06-14T05:28:57;95767.03;;;15.38;54.47
3960;BME280;1994;48.640;8.894;2023-06-14T05:31:24;95769.59;;;15.48;54.30
3960;BME280;1994;48.640;8.894;2023-06-14T05:33:52;95772.66;;;15.55;54.27
3960;BME280;1994;48.640;8.894;2023-06-14T05:36:19;95775.22;;;15.60;54.63
3960;BME280;1994;48.640;8.894;2023-06-14T05:38:46;95772.00;;;15.73;54.15
3960;BME280;1994;48.640;8.894;2023-06-14T05:41:12;95774.53;;;15.83;54.68
3960;BME280;1994;48.640;8.894;2023-06-14T05:43:38;95776.00;;;15.94;53.75
3960;BME280;1994;48.640;8.894;2023-06-14T05:46:04;95783.78;;;15.99;54.15
3960;BME280;1994;48.640;8.894;2023-06-14T05:48:31;95783.72;;;16.09;53.90
3960;BME280;1994;48.640;8.894;2023-06-14T05:50:56;95775.72;;;16.24;53.95
3960;BME280;1994;48.640;8.894;2023-06-14T05:53:23;95788.13;;;16.42;53.63
3960;BME280;1994;48.640;8.894;2023-06-14T05:55:50;95786.94;;;16.53;53.21
3960;BME280;1994;48.640;8.894;2023-06-14T05:58:18;95793.19;;;16.57;52.31
3960;BME280;1994;48.640;8.894;2023-06-14T06:00:45;95794.59;;;16.73;52.00
3960;BME280;1994;48.640;8.894;2023-06-14T06:03:12;95790.41;;;16.90;52.52
3960;BME280;1994;48.640;8.894;2023-06-14T06:05:39;95793.66;;;17.06;52.61
3960;BME280;1994;48.640;8.894;2023-06-14T06:08:05;95789.03;;;17.16;52.07
3960;BME280;1994;48.640;8.894;2023-06-14T06:10:31;95795.16;;;17.30;51.12
3960;BME280;1994;48.640;8.894;2023-06-14T06:12:57;95798.94;;;17.43;52.10
3960;BME280;1994;48.640;8.894;2023-06-14T06:15:23;95793.19;;;17.59;50.93
3960;BME280;1994;48.640;8.894;2023-06-14T06:17:49;95799.63;;;17.67;50.92
3960;BME280;1994;48.640;8.894;2023-06-14T06:20:16;95794.78;;;17.74;49.97
3960;BME280;1994;48.640;8.894;2023-06-14T06:22:43;95796.19;;;17.85;49.37
3960;BME280;1994;48.640;8.894;2023-06-14T06:25:09;95802.75;;;18.01;50.29
3960;BME280;1994;48.640;8.894;2023-06-14T06:27:35;95800.06;;;18.19;48.81
3960;BME280;1994;48.640;8.894;2023-06-14T06:30:03;95802.75;;;18.33;48.23
3960;BME280;1994;48.640;8.894;2023-06-14T06:32:29;95805.19;;;18.43;47.84
3960;BME280;1994;48.640;8.894;2023-06-14T06:34:55;95804.16;;;18.57;46.65
3960;BME280;1994;48.640;8.894;2023-06-14T06:37:21;95808.41;;;18.67;46.01
3960;BME280;1994;48.640;8.894;2023-06-14T06:39:46;95815.44;;;18.85;45.76
3960;BME280;1994;48.640;8.894;2023-06-14T06:42:13;95805.31;;;18.92;45.77
3960;BME280;1994;48.640;8.894;2023-06-14T06:44:39;95814.06;;;19.01;45.32
3960;BME280;1994;48.640;8.894;2023-06-14T06:47:05;95813.09;;;19.10;45.37
3960;BME280;1994;48.640;8.894;2023-06-14T06:49:30;95814.25;;;19.18;44.45
3960;BME280;1994;48.640;8.894;2023-06-14T06:52:05;95821.44;;;19.26;45.17
3960;BME280;1994;48.640;8.894;2023-06-14T06:54:32;95822.97;;;19.40;45.08
3960;BME280;1994;48.640;8.894;2023-06-14T06:56:58;95821.50;;;19.48;44.71
3960;BME280;1994;48.640;8.894;2023-06-14T06:59:25;95820.19;;;19.59;43.89
3960;BME280;1994;48.640;8.894;2023-06-14T07:01:51;95823.19;;;19.66;43.80
3960;BME280;1994;48.640;8.894;2023-06-14T07:04:16;95816.28;;;19.70;43.40
3960;BME280;1994;48.640;8.894;2023-06-14T07:06:43;95829.66;;;19.82;44.83
3960;BME280;1994;48.640;8.894;2023-06-14T07:09:09;95826.31;;;19.90;42.67
3960;BME280;1994;48.640;8.894;2023-06-14T07:11:44;95829.19;;;20.02;42.78
3960;BME280;1994;48.640;8.894;2023-06-14T07:14:10;95829.31;;;20.19;42.71
3960;BME280;1994;48.640;8.894;2023-06-14T07:16:36;95829.31;;;20.19;42.47
3960;BME280;1994;48.640;8.894;2023-06-14T07:19:03;95828.34;;;20.37;42.57
3960;BME280;1994;48.640;8.894;2023-06-14T07:21:29;95837.41;;;20.53;42.60
3960;BME280;1994;48.640;8.894;2023-06-14T07:23:55;95835.72;;;20.57;42.45
3960;BME280;1994;48.640;8.894;2023-06-14T07:26:22;95837.69;;;20.73;41.94
3960;BME280;1994;48.640;8.894;2023-06-14T07:28:49;95840.22;;;20.87;42.32
3960;BME280;1994;48.640;8.894;2023-06-14T07:31:15;95836.69;;;20.91;41.10
3960;BME280;1994;48.640;8.894;2023-06-14T07:33:42;95841.16;;;20.91;40.95
3960;BME280;1994;48.640;8.894;2023-06-14T07:36:08;95846.16;;;21.01;41.00
3960;BME280;1994;48.640;8.894;2023-06-14T07:38:34;95839.06;;;21.01;40.35
3960;BME280;1994;48.640;8.894;2023-06-14T07:41:00;95846.38;;;21.21;40.60
3960;BME280;1994;48.640;8.894;2023-06-14T07:43:26;95850.91;;;21.38;40.52
3960;BME280;1994;48.640;8.894;2023-06-14T07:45:52;95852.63;;;21.51;41.08
3960;BME280;1994;48.640;8.894;2023-06-14T07:48:18;95853.72;;;21.67;39.98
3960;BME280;1994;48.640;8.894;2023-06-14T07:50:44;95847.88;;;21.70;40.07
3960;BME280;1994;48.640;8.894;2023-06-14T07:53:10;95854.69;;;21.71;40.17
3960;BME280;1994;48.640;8.894;2023-06-14T07:55:36;95853.44;;;21.60;39.72
3960;BME280;1994;48.640;8.894;2023-06-14T07:58:06;95865.91;;;21.85;39.63
3960;BME280;1994;48.640;8.894;2023-06-14T08:00:32;95848.69;;;21.87;40.12
3960;BME280;1994;48.640;8.894;2023-06-14T08:02:58;95856.56;;;22.13;38.97
3960;BME280;1994;48.640;8.894;2023-06-14T08:05:28;95857.19;;;22.10;39.01
3960;BME280;1994;48.640;8.894;2023-06-14T08:07:55;95849.41;;;22.39;38.55
3960;BME280;1994;48.640;8.894;2023-06-14T08:10:22;95858.88;;;22.40;38.25
3960;BME280;1994;48.640;8.894;2023-06-14T08:12:48;95865.78;;;22.70;37.47
3960;BME280;1994;48.640;8.894;2023-06-14T08:15:16;95863.69;;;22.92;38.15
3960;BME280;1994;48.640;8.894;2023-06-14T08:17:45;95869.34;;;23.20;37.64
3960;BME280;1994;48.640;8.894;2023-06-14T08:20:12;95865.63;;;23.21;36.83
3960;BME280;1994;48.640;8.894;2023-06-14T08:22:39;95874.34;;;23.71;36.38
3960;BME280;1994;48.640;8.894;2023-06-14T08:25:08;95870.84;;;23.79;36.31
3960;BME280;1994;48.640;8.894;2023-06-14T08:27:35;95874.63;;;23.98;35.69
3960;BME280;1994;48.640;8.894;2023-06-14T08:30:01;95873.88;;;23.98;36.37
3960;BME280;1994;48.640;8.894;2023-06-14T08:32:28;95876.56;;;24.10;35.06
3960;BME280;1994;48.640;8.894;2023-06-14T08:34:54;95868.91;;;24.29;35.28
3960;BME280;1994;48.640;8.894;2023-06-14T08:37:19;95875.22;;;24.57;35.09
3960;BME280;1994;48.640;8.894;2023-06-14T08:39:46;95871.63;;;24.73;34.62
3960;BME280;1994;48.640;8.894;2023-06-14T08:42:12;95874.63;;;24.84;35.29
3960;BME280;1994;48.640;8.894;2023-06-14T08:44:40;95871.06;;;24.68;35.04
3960;BME280;1994;48.640;8.894;2023-06-14T08:47:07;95881.66;;;24.68;34.48
3960;BME280;1994;48.640;8.894;2023-06-14T08:49:36;95880.09;;;24.67;35.82
3960;BME280;1994;48.640;8.894;2023-06-14T08:52:03;95879.88;;;24.60;35.06
3960;BME280;1994;48.640;8.894;2023-06-14T08:54:31;95878.63;;;24.90;34.32
3960;BME280;1994;48.640;8.894;2023-06-14T08:57:00;95883.63;;;25.27;34.17
3960;BME280;1994;48.640;8.894;2023-06-14T08:59:26;95882.84;;;25.51;34.27
3960;BME280;1994;48.640;8.894;2023-06-14T09:01:53;95887.91;;;25.68;33.90
3960;BME280;1994;48.640;8.894;2023-06-14T09:04:23;95883.19;;;25.37;33.36
3960;BME280;1994;48.640;8.894;2023-06-14T09:06:50;95882.84;;;25.51;33.63
3960;BME280;1994;48.640;8.894;2023-06-14T09:09:21;95884.41;;;25.52;33.96
3960;BME280;1994;48.640;8.894;2023-06-14T09:11:52;95875.44;;;25.68;32.15
3960;BME280;1994;48.640;8.894;2023-06-14T09:14:23;95880.94;;;25.75;32.38
3960;BME280;1994;48.640;8.894;2023-06-14T09:16:54;95882.56;;;25.92;32.78
3960;BME280;1994;48.640;8.894;2023-06-14T09:19:26;95889.34;;;25.65;32.98
3960;BME280;1994;48.640;8.894;2023-06-14T09:21:52;95885.00;;;25.97;33.04
3960;BME280;1994;48.640;8.894;2023-06-14T09:24:19;95895.19;;;25.83;33.04
3960;BME280;1994;48.640;8.894;2023-06-14T09:26:48;95894.03;;;26.20;33.75
3960;BME280;1994;48.640;8.894;2023-06-14T09:29:17;95890.84;;;26.42;32.11
3960;BME280;1994;48.640;8.894;2023-06-14T09:31:46;95899.72;;;26.34;31.75
3960;BME280;1994;48.640;8.894;2023-06-14T09:34:12;95894.31;;;25.79;32.34
3960;BME280;1994;48.640;8.894;2023-06-14T09:36:40;95900.81;;;25.93;32.42
3960;BME280;1994;48.640;8.894;2023-06-14T09:39:08;95897.75;;;26.19;31.80
3960;BME280;1994;48.640;8.894;2023-06-14T09:41:36;95895.09;;;26.31;30.94
3960;BME280;1994;48.640;8.894;2023-06-14T09:44:04;95892.16;;;26.36;31.06
3960;BME280;1994;48.640;8.894;2023-06-14T09:46:31;95897.53;;;26.24;31.72
3960;BME280;1994;48.640;8.894;2023-06-14T09:48:58;95894.03;;;26.20;31.87
3960;BME280;1994;48.640;8.894;2023-06-14T09:51:25;95899.53;;;26.27;31.75
3960;BME280;1994;48.640;8.894;2023-06-14T09:53:52;95898.91;;;26.33;30.12
3960;BME280;1994;48.640;8.894;2023-06-14T09:56:29;95901.84;;;25.77;31.76
3960;BME280;1994;48.640;8.894;2023-06-14T09:58:57;95899.25;;;24.96;33.04
3960;BME280;1994;48.640;8.894;2023-06-14T10:01:30;95899.41;;;25.48;32.76
3960;BME280;1994;48.640;8.894;2023-06-14T10:04:04;95892.97;;;25.85;32.52
3960;BME280;1994;48.640;8.894;2023-06-14T10:06:31;95897.38;;;26.32;31.65
3960;BME280;1994;48.640;8.894;2023-06-14T10:08:59;95888.50;;;26.13;30.43
3960;BME280;1994;48.640;8.894;2023-06-14T10:11:26;95889.94;;;26.10;30.74
3960;BME280;1994;48.640;8.894;2023-06-14T10:13:57;95888.72;;;26.20;30.09
3960;BME280;1994;48.640;8.894;2023-06-14T10:19:34;95891.53;;;26.82;30.04
3960;BME280;1994;48.640;8.894;2023-06-14T10:22:35;95899.41;;;26.51;29.41
3960;BME280;1994;48.640;8.894;2023-06-14T10:25:02;95897.16;;;25.98;30.40
3960;BME280;1994;48.640;8.894;2023-06-14T10:27:33;95895.38;;;25.90;29.69
3960;BME280;1994;48.640;8.894;2023-06-14T10:30:01;95893.41;;;25.99;30.02
3960;BME280;1994;48.640;8.894;2023-06-14T10:32:27;95891.56;;;26.27;29.70
3960;BME280;1994;48.640;8.894;2023-06-14T10:35:07;95895.56;;;26.21;29.60
3960;BME280;1994;48.640;8.894;2023-06-14T10:37:33;95905.09;;;26.37;30.31
3960;BME280;1994;48.640;8.894;2023-06-14T10:39:59;95899.88;;;25.62;30.07
3960;BME280;1994;48.640;8.894;2023-06-14T10:42:31;95894.50;;;26.10;30.22
3960;BME280;1994;48.640;8.894;2023-06-14T10:44:58;95890.63;;;26.35;29.00
3960;BME280;1994;48.640;8.894;2023-06-14T10:47:34;95891.31;;;26.32;29.16
3960;BME280;1994;48.640;8.894;2023-06-14T10:50:09;95895.47;;;26.17;29.51
3960;BME280;1994;48.640;8.894;2023-06-14T10:52:41;95883.47;;;26.51;29.62
3960;BME280;1994;48.640;8.894;2023-06-14T10:55:15;95891.41;;;26.63;28.73
3960;BME280;1994;48.640;8.894;2023-06-14T10:57:50;95885.00;;;26.52;28.57
3960;BME280;1994;48.640;8.894;2023-06-14T11:00:25;95876.81;;;26.02;28.30
3960;BME280;1994;48.640;8.894;2023-06-14T11:05:54;95883.94;;;25.62;28.04
3960;BME280;1994;48.640;8.894;2023-06-14T11:11:22;95891.00;;;25.70;29.42
3960;BME280;1994;48.640;8.894;2023-06-14T11:13:49;95892.44;;;26.19;28.48
3960;BME280;1994;48.640;8.894;2023-06-14T11:16:17;95883.47;;;26.51;27.47
3960;BME280;1994;48.640;8.894;2023-06-14T11:18:45;95879.69;;;26.52;28.20
3960;BME280;1994;48.640;8.894;2023-06-14T11:21:15;95878.16;;;26.51;28.20
3960;BME280;1994;48.640;8.894;2023-06-14T11:23:40;95885.00;;;26.64;28.18
3960;BME280;1994;48.640;8.894;2023-06-14T11:26:06;95880.28;;;26.18;28.15
3960;BME280;1994;48.640;8.894;2023-06-14T11:28:39;95884.06;;;26.17;28.12
3960;BME280;1994;48.640;8.894;2023-06-14T11:31:06;95884.88;;;26.33;27.84
3960;BME280;1994;48.640;8.894;2023-06-14T11:33:32;95890.91;;;26.73;27.37
3960;BME280;1994;48.640;8.894;2023-06-14T11:35:58;95879.94;;;26.74;26.30
3960;BME280;1994;48.640;8.894;2023-06-14T11:38:27;95886.19;;;27.25;26.86
3960;BME280;1994;48.640;8.894;2023-06-14T11:40:52;95890.22;;;27.69;27.23
3960;BME280;1994;48.640;8.894;2023-06-14T11:43:18;95882.84;;;27.78;25.93
3960;BME280;1994;48.640;8.894;2023-06-14T11:45:48;95879.66;;;28.07;26.02
3960;BME280;1994;48.640;8.894;2023-06-14T11:48:15;95889.47;;;28.03;25.10
3960;BME280;1994;48.640;8.894;2023-06-14T11:50:40;95878.81;;;28.03;25.10
3960;BME280;1994;48.640;8.894;2023-06-14T11:53:06;95873.75;;;27.79;25.63
3960;BME280;1994;48.640;8.894;2023-06-14T11:55:37;95886.06;;;27.87;25.84
3960;BME280;1994;48.640;8.894;2023-06-14T11:58:03;95887.31;;;27.74;26.57
3960;BME280;1994;48.640;8.894;2023-06-14T12:00:30;95882.19;;;27.03;26.84
3960;BME280;1994;48.640;8.894;2023-06-14T12:02:57;95876.44;;;26.43;27.73
3960;BME280;1994;48.640;8.894;2023-06-14T12:05:24;95874.75;;;26.50;27.76
3960;BME280;1994;48.640;8.894;2023-06-14T12:07:58;95881.09;;;27.51;28.03
3960;BME280;1994;48.640;8.894;2023-06-14T12:10:24;95876.16;;;27.84;25.83
3960;BME280;1994;48.640;8.894;2023-06-14T12:12:50;95876.81;;;27.81;27.14
3960;BME280;1994;48.640;8.894;2023-06-14T12:15:16;95881.69;;;27.94;27.46
3960;BME280;1994;48.640;8.894;2023-06-14T12:17:42;95882.13;;;27.31;27.28
3960;BME280;1994;48.640;8.894;2023-06-14T12:20:11;95881.66;;;27.60;27.09
3960;BME280;1994;48.640;8.894;2023-06-14T12:22:51;95880.75;;;27.87;27.05
3960;BME280;1994;48.640;8.894;2023-06-14T12:25:33;95881.91;;;28.43;25.94
3960;BME280;1994;48.640;8.894;2023-06-14T12:28:06;95879.22;;;28.05;26.32
3960;BME280;1994;48.640;8.894;2023-06-14T12:30:33;95866.13;;;28.53;25.96
3960;BME280;1994;48.640;8.894;2023-06-14T12:33:00;95865.41;;;28.56;26.31
3960;BME280;1994;48.640;8.894;2023-06-14T12:35:26;95869.88;;;27.76;27.50
3960;BME280;1994;48.640;8.894;2023-06-14T12:37:52;95867.03;;;27.69;27.45
3960;BME280;1994;48.640;8.894;2023-06-14T12:40:18;95870.84;;;28.22;27.28
3960;BME280;1994;48.640;8.894;2023-06-14T12:42:45;95877.31;;;28.40;26.74
3960;BME280;1994;48.640;8.894;2023-06-14T12:45:13;95869.28;;;28.59;26.15
3960;BME280;1994;48.640;8.894;2023-06-14T12:47:39;95862.75;;;28.56;25.93
3960;BME280;1994;48.640;8.894;2023-06-14T12:50:06;95872.31;;;28.57;25.32
3960;BME280;1994;48.640;8.894;2023-06-14T12:52:32;95874.56;;;28.78;26.21
3960;BME280;1994;48.640;8.894;2023-06-14T12:55:03;95870.28;;;29.15;26.33
3960;BME280;1994;48.640;8.894;2023-06-14T12:57:29;95874.78;;;29.59;24.97
3960;BME280;1994;48.640;8.894;2023-06-14T12:59:55;95882.06;;;29.36;25.62
3960;BME280;1994;48.640;8.894;2023-06-14T13:02:21;95878.63;;;29.13;24.80
3960;BME280;1994;48.640;8.894;2023-06-14T13:04:51;95877.06;;;29.09;24.93
3960;BME280;1994;48.640;8.894;2023-06-14T13:07:17;95887.41;;;29.14;25.55
3960;BME280;1994;48.640;8.894;2023-06-14T13:09:43;95882.84;;;29.37;25.62
3960;BME280;1994;48.640;8.894;2023-06-14T13:12:10;95882.00;;;29.33;24.79
3960;BME280;1994;48.640;8.894;2023-06-14T13:14:37;95885.59;;;29.44;24.93
3960;BME280;1994;48.640;8.894;2023-06-14T13:17:03;95887.00;;;29.12;25.61
3960;BME280;1994;48.640;8.894;2023-06-14T13:19:29;95886.81;;;29.24;24.92
3960;BME280;1994;48.640;8.894;2023-06-14T13:21:55;95885.91;;;28.94;24.82
3960;BME280;1994;48.640;8.894;2023-06-14T13:24:21;95890.63;;;29.49;25.04
3960;BME280;1994;48.640;8.894;2023-06-14T13:26:47;95891.38;;;29.01;24.74
3960;BME280;1994;48.640;8.894;2023-06-14T13:29:13;95891.88;;;29.06;24.61
3960;BME280;1994;48.640;8.894;2023-06-14T13:31:38;95874.41;;;29.35;24.43
3960;BME280;1994;48.640;8.894;2023-06-14T13:34:05;95881.84;;;29.71;23.63